KGLS/GLS METAR and TAF weather

Enter ICAO airport designator
Station Type Date Time Source
KGLS METAR 2019/07/18 10:52 UTC NOAA

KGLS 181052Z 17011KT 10SM CLR 29/24 A3004 RMK AO2 SLP172 T02890244


Station Type Date Time Source
KGLS Decoded METAR 2019/07/18 10:52 UTC NOAA

SCHOLES FIELD, TX, United States (KGLS) 29-16N 094-52W 6M
Jul 18, 2019 - 06:52 AM EDT / 2019.07.18 1052 UTC
Wind: from the S (170 degrees) at 13 MPH (11 KT):0
Visibility: 10 mile(s):0
Sky conditions: clear
Temperature: 84.0 F (28.9 C)
Dew Point: 75.9 F (24.4 C)
Relative Humidity: 76%
Pressure (altimeter): 30.04 in. Hg (1017 hPa)
ob: KGLS 181052Z 17011KT 10SM CLR 29/24 A3004 RMK AO2 SLP172 T02890244
cycle: 11

Station Type Date Time Source
KGLS TAF 2019/07/18 06:23 UTC NOAA

TAF KGLS 180520Z 1806/1906 17011KT P6SM SCT015

Example: see airport list